Terminal Aerodrome Forecast
Issued by NWS

Home | Current Version | Previous Version | Text Only | Print | Product List | Glossary On
Versions: 1 2 3 4 5 6 7 8 9 10 11 12 13 14 15 16 17 18 19 20 21 22 23 24 25 26 27 28 29 30 31 32 33 34 35 36 37 38
000
FTUS46 KEKA 250543
TAFACV
TAF
KACV 250543Z 2506/2606 19015G23KT P6SM BKN045 OVC080 WS010/16030KT
     FM250900 16016G24KT 5SM -RA BR BKN025 OVC035 WS010/16030KT
     FM251600 16020G29KT 6SM -TSRA SCT025 OVC030CB
     FM252000 17015KT P6SM -SHRA OVC025 PROB30 2520/2523 P6SM -TSRA
      BKN025CB
     FM260300 17007KT 3SM -SHRA BR SCT007 OVC025=

USA.gov is the U.S. government's official web portal to all federal, state and local government web resources and services.